sensor_id;sensor_type;location;lat;lon;timestamp;P1;durP1;ratioP1;P2;durP2;ratioP2
74674;SDS011;63200;48.810;12.352;2023-07-28T00:00:23;7.43;;;4.82;;
74674;SDS011;63200;48.810;12.352;2023-07-28T00:02:48;9.23;;;5.45;;
74674;SDS011;63200;48.810;12.352;2023-07-28T00:05:13;8.18;;;5.15;;
74674;SDS011;63200;48.810;12.352;2023-07-28T00:07:39;5.40;;;4.90;;
74674;SDS011;63200;48.810;12.352;2023-07-28T00:10:04;10.32;;;4.75;;
74674;SDS011;63200;48.810;12.352;2023-07-28T00:12:30;9.60;;;4.68;;
74674;SDS011;63200;48.810;12.352;2023-07-28T00:14:55;10.13;;;5.32;;
74674;SDS011;63200;48.810;12.352;2023-07-28T00:17:20;13.38;;;5.53;;
74674;SDS011;63200;48.810;12.352;2023-07-28T00:19:46;7.38;;;5.15;;
74674;SDS011;63200;48.810;12.352;2023-07-28T00:22:11;9.95;;;4.90;;
74674;SDS011;63200;48.810;12.352;2023-07-28T00:24:36;9.27;;;5.45;;
74674;SDS011;63200;48.810;12.352;2023-07-28T00:27:02;10.65;;;5.22;;
74674;SDS011;63200;48.810;12.352;2023-07-28T00:29:27;6.18;;;4.35;;
74674;SDS011;63200;48.810;12.352;2023-07-28T00:31:53;5.25;;;4.63;;
74674;SDS011;63200;48.810;12.352;2023-07-28T00:34:18;8.02;;;4.88;;
74674;SDS011;63200;48.810;12.352;2023-07-28T00:36:43;5.47;;;4.53;;
74674;SDS011;63200;48.810;12.352;2023-07-28T00:39:09;8.82;;;5.45;;
74674;SDS011;63200;48.810;12.352;2023-07-28T00:41:34;7.93;;;4.57;;
74674;SDS011;63200;48.810;12.352;2023-07-28T00:43:59;7.03;;;4.88;;
74674;SDS011;63200;48.810;12.352;2023-07-28T00:46:24;8.60;;;5.22;;
74674;SDS011;63200;48.810;12.352;2023-07-28T00:48:50;7.05;;;5.43;;
74674;SDS011;63200;48.810;12.352;2023-07-28T00:51:16;4.95;;;4.43;;
74674;SDS011;63200;48.810;12.352;2023-07-28T00:53:41;8.57;;;4.85;;
74674;SDS011;63200;48.810;12.352;2023-07-28T00:56:08;10.68;;;5.10;;
74674;SDS011;63200;48.810;12.352;2023-07-28T00:58:35;9.57;;;4.90;;
74674;SDS011;63200;48.810;12.352;2023-07-28T01:01:00;9.63;;;5.05;;
74674;SDS011;63200;48.810;12.352;2023-07-28T01:03:25;9.35;;;5.28;;
74674;SDS011;63200;48.810;12.352;2023-07-28T01:06:00;11.18;;;5.70;;
74674;SDS011;63200;48.810;12.352;2023-07-28T01:11:21;11.32;;;5.63;;
74674;SDS011;63200;48.810;12.352;2023-07-28T01:13:46;9.38;;;5.70;;
74674;SDS011;63200;48.810;12.352;2023-07-28T01:16:11;9.02;;;5.65;;
74674;SDS011;63200;48.810;12.352;2023-07-28T01:18:37;8.32;;;5.50;;
74674;SDS011;63200;48.810;12.352;2023-07-28T01:21:03;12.07;;;5.38;;
74674;SDS011;63200;48.810;12.352;2023-07-28T01:26:08;8.20;;;5.05;;
74674;SDS011;63200;48.810;12.352;2023-07-28T01:28:35;9.55;;;5.38;;
74674;SDS011;63200;48.810;12.352;2023-07-28T01:31:04;7.00;;;5.50;;
74674;SDS011;63200;48.810;12.352;2023-07-28T01:33:31;10.32;;;5.57;;
74674;SDS011;63200;48.810;12.352;2023-07-28T01:35:57;9.68;;;5.60;;
74674;SDS011;63200;48.810;12.352;2023-07-28T01:38:24;9.20;;;5.53;;
74674;SDS011;63200;48.810;12.352;2023-07-28T01:40:49;5.47;;;4.95;;
74674;SDS011;63200;48.810;12.352;2023-07-28T01:43:14;8.10;;;5.40;;
74674;SDS011;63200;48.810;12.352;2023-07-28T01:45:40;11.32;;;5.40;;
74674;SDS011;63200;48.810;12.352;2023-07-28T01:48:05;9.13;;;5.25;;
74674;SDS011;63200;48.810;12.352;2023-07-28T01:50:31;7.38;;;4.93;;
74674;SDS011;63200;48.810;12.352;2023-07-28T01:52:56;7.53;;;4.45;;
74674;SDS011;63200;48.810;12.352;2023-07-28T01:55:21;8.93;;;4.75;;
74674;SDS011;63200;48.810;12.352;2023-07-28T01:57:53;7.82;;;4.68;;
74674;SDS011;63200;48.810;12.352;2023-07-28T02:00:20;15.90;;;5.65;;
74674;SDS011;63200;48.810;12.352;2023-07-28T02:02:46;15.77;;;5.10;;
74674;SDS011;63200;48.810;12.352;2023-07-28T02:05:13;10.05;;;5.03;;
74674;SDS011;63200;48.810;12.352;2023-07-28T02:07:38;9.82;;;5.55;;
74674;SDS011;63200;48.810;12.352;2023-07-28T02:10:03;11.05;;;5.20;;
74674;SDS011;63200;48.810;12.352;2023-07-28T02:12:29;6.93;;;5.22;;
74674;SDS011;63200;48.810;12.352;2023-07-28T02:14:54;12.90;;;5.13;;
74674;SDS011;63200;48.810;12.352;2023-07-28T02:17:20;10.07;;;5.05;;
74674;SDS011;63200;48.810;12.352;2023-07-28T02:19:45;6.53;;;5.00;;
74674;SDS011;63200;48.810;12.352;2023-07-28T02:22:11;6.55;;;4.32;;
74674;SDS011;63200;48.810;12.352;2023-07-28T02:24:36;11.77;;;4.38;;
74674;SDS011;63200;48.810;12.352;2023-07-28T02:27:02;21.52;;;4.40;;
74674;SDS011;63200;48.810;12.352;2023-07-28T02:29:27;186.98;;;7.05;;
74674;SDS011;63200;48.810;12.352;2023-07-28T02:31:52;10.95;;;3.75;;
74674;SDS011;63200;48.810;12.352;2023-07-28T02:34:18;7.55;;;4.00;;
74674;SDS011;63200;48.810;12.352;2023-07-28T02:36:43;4.50;;;3.83;;
74674;SDS011;63200;48.810;12.352;2023-07-28T02:39:08;7.28;;;4.45;;
74674;SDS011;63200;48.810;12.352;2023-07-28T02:41:33;5.53;;;4.00;;
74674;SDS011;63200;48.810;12.352;2023-07-28T02:43:59;114.28;;;7.20;;
74674;SDS011;63200;48.810;12.352;2023-07-28T02:46:24;167.43;;;6.60;;
74674;SDS011;63200;48.810;12.352;2023-07-28T02:48:51;15.75;;;3.45;;
74674;SDS011;63200;48.810;12.352;2023-07-28T02:51:16;3.45;;;3.17;;
74674;SDS011;63200;48.810;12.352;2023-07-28T02:53:41;4.03;;;3.13;;
74674;SDS011;63200;48.810;12.352;2023-07-28T02:56:07;4.93;;;3.25;;
74674;SDS011;63200;48.810;12.352;2023-07-28T02:58:32;6.45;;;3.15;;
74674;SDS011;63200;48.810;12.352;2023-07-28T03:00:57;3.17;;;2.97;;
74674;SDS011;63200;48.810;12.352;2023-07-28T03:03:23;4.90;;;2.95;;
74674;SDS011;63200;48.810;12.352;2023-07-28T03:05:51;8.48;;;3.28;;
74674;SDS011;63200;48.810;12.352;2023-07-28T03:08:17;5.30;;;3.05;;
74674;SDS011;63200;48.810;12.352;2023-07-28T03:10:42;2.83;;;2.70;;
74674;SDS011;63200;48.810;12.352;2023-07-28T03:13:08;3.15;;;2.95;;
74674;SDS011;63200;48.810;12.352;2023-07-28T03:15:33;2.90;;;2.78;;
74674;SDS011;63200;48.810;12.352;2023-07-28T03:17:58;3.63;;;2.40;;
74674;SDS011;63200;48.810;12.352;2023-07-28T03:20:23;1.98;;;1.90;;
74674;SDS011;63200;48.810;12.352;2023-07-28T03:22:49;2.17;;;2.17;;
74674;SDS011;63200;48.810;12.352;2023-07-28T03:25:15;3.75;;;2.10;;
74674;SDS011;63200;48.810;12.352;2023-07-28T03:27:40;2.42;;;2.33;;
74674;SDS011;63200;48.810;12.352;2023-07-28T03:30:05;5.18;;;2.38;;
74674;SDS011;63200;48.810;12.352;2023-07-28T03:32:34;3.75;;;2.72;;
74674;SDS011;63200;48.810;12.352;2023-07-28T03:34:59;6.22;;;2.97;;
74674;SDS011;63200;48.810;12.352;2023-07-28T03:37:25;4.05;;;3.28;;
74674;SDS011;63200;48.810;12.352;2023-07-28T03:39:50;5.55;;;3.00;;
74674;SDS011;63200;48.810;12.352;2023-07-28T03:42:15;4.70;;;3.00;;
74674;SDS011;63200;48.810;12.352;2023-07-28T03:44:41;3.28;;;2.95;;
74674;SDS011;63200;48.810;12.352;2023-07-28T03:47:06;3.90;;;3.33;;
74674;SDS011;63200;48.810;12.352;2023-07-28T03:49:32;6.07;;;3.33;;
74674;SDS011;63200;48.810;12.352;2023-07-28T03:51:57;6.70;;;3.95;;
74674;SDS011;63200;48.810;12.352;2023-07-28T03:54:23;4.22;;;3.53;;
74674;SDS011;63200;48.810;12.352;2023-07-28T03:56:48;13.88;;;3.65;;
74674;SDS011;63200;48.810;12.352;2023-07-28T03:59:14;10.07;;;3.03;;
74674;SDS011;63200;48.810;12.352;2023-07-28T04:01:39;9.02;;;3.35;;
74674;SDS011;63200;48.810;12.352;2023-07-28T04:04:05;7.03;;;3.58;;
74674;SDS011;63200;48.810;12.352;2023-07-28T04:06:40;4.40;;;3.50;;
74674;SDS011;63200;48.810;12.352;2023-07-28T04:09:06;3.90;;;3.47;;
74674;SDS011;63200;48.810;12.352;2023-07-28T04:11:32;5.32;;;3.33;;
74674;SDS011;63200;48.810;12.352;2023-07-28T04:13:57;9.95;;;3.53;;
74674;SDS011;63200;48.810;12.352;2023-07-28T04:16:22;4.57;;;3.60;;
74674;SDS011;63200;48.810;12.352;2023-07-28T04:18:47;3.63;;;3.38;;
74674;SDS011;63200;48.810;12.352;2023-07-28T04:21:13;2.95;;;2.85;;
74674;SDS011;63200;48.810;12.352;2023-07-28T04:23:38;5.35;;;3.67;;
74674;SDS011;63200;48.810;12.352;2023-07-28T04:26:03;4.30;;;3.15;;
74674;SDS011;63200;48.810;12.352;2023-07-28T04:28:29;4.60;;;2.90;;
74674;SDS011;63200;48.810;12.352;2023-07-28T04:30:54;4.78;;;3.33;;
74674;SDS011;63200;48.810;12.352;2023-07-28T04:33:19;3.78;;;3.05;;
74674;SDS011;63200;48.810;12.352;2023-07-28T04:35:44;3.90;;;3.38;;
74674;SDS011;63200;48.810;12.352;2023-07-28T04:38:10;3.88;;;3.58;;
74674;SDS011;63200;48.810;12.352;2023-07-28T04:40:35;7.45;;;3.88;;
74674;SDS011;63200;48.810;12.352;2023-07-28T04:43:00;5.00;;;4.00;;
74674;SDS011;63200;48.810;12.352;2023-07-28T04:45:26;5.05;;;4.60;;
74674;SDS011;63200;48.810;12.352;2023-07-28T04:47:51;6.38;;;5.05;;
74674;SDS011;63200;48.810;12.352;2023-07-28T04:50:18;7.05;;;4.65;;
74674;SDS011;63200;48.810;12.352;2023-07-28T04:52:43;5.95;;;4.93;;
74674;SDS011;63200;48.810;12.352;2023-07-28T04:55:08;8.23;;;4.82;;
74674;SDS011;63200;48.810;12.352;2023-07-28T04:57:34;7.20;;;5.32;;
74674;SDS011;63200;48.810;12.352;2023-07-28T04:59:59;6.45;;;5.00;;
74674;SDS011;63200;48.810;12.352;2023-07-28T05:02:24;7.85;;;5.45;;
74674;SDS011;63200;48.810;12.352;2023-07-28T05:04:50;5.05;;;4.63;;
74674;SDS011;63200;48.810;12.352;2023-07-28T05:07:15;9.75;;;5.03;;
74674;SDS011;63200;48.810;12.352;2023-07-28T05:09:40;5.65;;;4.82;;
74674;SDS011;63200;48.810;12.352;2023-07-28T05:12:06;5.30;;;4.80;;
74674;SDS011;63200;48.810;12.352;2023-07-28T05:14:31;5.10;;;4.60;;
74674;SDS011;63200;48.810;12.352;2023-07-28T05:16:57;5.35;;;4.68;;
74674;SDS011;63200;48.810;12.352;2023-07-28T05:19:22;4.93;;;4.25;;
74674;SDS011;63200;48.810;12.352;2023-07-28T05:21:47;5.38;;;4.88;;
74674;SDS011;63200;48.810;12.352;2023-07-28T05:24:13;4.70;;;4.30;;
74674;SDS011;63200;48.810;12.352;2023-07-28T05:26:38;9.02;;;4.53;;
74674;SDS011;63200;48.810;12.352;2023-07-28T05:29:03;6.57;;;4.70;;
74674;SDS011;63200;48.810;12.352;2023-07-28T05:31:29;6.78;;;4.43;;
74674;SDS011;63200;48.810;12.352;2023-07-28T05:33:54;6.43;;;4.72;;
74674;SDS011;63200;48.810;12.352;2023-07-28T05:36:19;6.25;;;4.32;;
74674;SDS011;63200;48.810;12.352;2023-07-28T05:38:45;5.90;;;4.45;;
74674;SDS011;63200;48.810;12.352;2023-07-28T05:41:10;5.88;;;4.72;;
74674;SDS011;63200;48.810;12.352;2023-07-28T05:43:35;8.10;;;4.80;;
74674;SDS011;63200;48.810;12.352;2023-07-28T05:46:01;4.68;;;4.28;;
74674;SDS011;63200;48.810;12.352;2023-07-28T05:48:26;5.68;;;4.13;;
74674;SDS011;63200;48.810;12.352;2023-07-28T05:50:52;13.10;;;4.22;;
74674;SDS011;63200;48.810;12.352;2023-07-28T05:53:19;4.72;;;4.15;;
74674;SDS011;63200;48.810;12.352;2023-07-28T05:55:46;7.82;;;4.40;;
74674;SDS011;63200;48.810;12.352;2023-07-28T05:58:11;8.10;;;4.47;;
74674;SDS011;63200;48.810;12.352;2023-07-28T06:00:38;4.05;;;3.72;;
74674;SDS011;63200;48.810;12.352;2023-07-28T06:03:04;5.50;;;3.90;;
74674;SDS011;63200;48.810;12.352;2023-07-28T06:05:29;4.93;;;3.75;;
74674;SDS011;63200;48.810;12.352;2023-07-28T06:07:55;6.35;;;3.75;;
74674;SDS011;63200;48.810;12.352;2023-07-28T06:10:20;7.30;;;4.00;;
74674;SDS011;63200;48.810;12.352;2023-07-28T06:12:45;5.32;;;3.95;;
74674;SDS011;63200;48.810;12.352;2023-07-28T06:15:10;4.95;;;3.63;;
74674;SDS011;63200;48.810;12.352;2023-07-28T06:17:36;6.88;;;3.58;;
74674;SDS011;63200;48.810;12.352;2023-07-28T06:20:01;5.47;;;3.95;;
74674;SDS011;63200;48.810;12.352;2023-07-28T06:22:26;4.10;;;3.30;;
74674;SDS011;63200;48.810;12.352;2023-07-28T06:24:52;5.07;;;3.55;;
74674;SDS011;63200;48.810;12.352;2023-07-28T06:27:17;5.38;;;3.75;;
74674;SDS011;63200;48.810;12.352;2023-07-28T06:29:42;3.97;;;3.33;;
74674;SDS011;63200;48.810;12.352;2023-07-28T06:32:08;5.15;;;3.42;;
74674;SDS011;63200;48.810;12.352;2023-07-28T06:34:33;5.05;;;3.38;;
74674;SDS011;63200;48.810;12.352;2023-07-28T06:36:58;4.63;;;3.22;;
74674;SDS011;63200;48.810;12.352;2023-07-28T06:39:24;6.05;;;3.30;;
74674;SDS011;63200;48.810;12.352;2023-07-28T06:41:49;4.10;;;3.13;;
74674;SDS011;63200;48.810;12.352;2023-07-28T06:44:15;2.97;;;2.83;;
74674;SDS011;63200;48.810;12.352;2023-07-28T06:46:41;4.32;;;3.35;;
74674;SDS011;63200;48.810;12.352;2023-07-28T06:49:07;4.18;;;3.03;;
74674;SDS011;63200;48.810;12.352;2023-07-28T06:51:32;4.60;;;2.65;;
74674;SDS011;63200;48.810;12.352;2023-07-28T06:53:58;3.63;;;2.63;;
74674;SDS011;63200;48.810;12.352;2023-07-28T06:56:24;3.13;;;2.92;;
74674;SDS011;63200;48.810;12.352;2023-07-28T06:58:49;4.15;;;3.10;;
74674;SDS011;63200;48.810;12.352;2023-07-28T07:01:14;5.10;;;3.00;;
74674;SDS011;63200;48.810;12.352;2023-07-28T07:03:40;4.47;;;2.58;;
74674;SDS011;63200;48.810;12.352;2023-07-28T07:06:05;3.45;;;2.80;;
74674;SDS011;63200;48.810;12.352;2023-07-28T07:08:31;3.03;;;2.60;;
74674;SDS011;63200;48.810;12.352;2023-07-28T07:10:57;4.32;;;2.83;;
74674;SDS011;63200;48.810;12.352;2023-07-28T07:13:23;2.90;;;2.67;;
74674;SDS011;63200;48.810;12.352;2023-07-28T07:15:48;2.80;;;2.60;;
74674;SDS011;63200;48.810;12.352;2023-07-28T07:18:13;2.97;;;2.78;;
74674;SDS011;63200;48.810;12.352;2023-07-28T07:20:39;2.95;;;2.67;;
74674;SDS011;63200;48.810;12.352;2023-07-28T07:23:04;4.55;;;2.83;;
74674;SDS011;63200;48.810;12.352;2023-07-28T07:25:30;2.95;;;2.67;;
74674;SDS011;63200;48.810;12.352;2023-07-28T07:27:56;3.65;;;2.50;;
74674;SDS011;63200;48.810;12.352;2023-07-28T07:30:21;2.35;;;2.28;;
74674;SDS011;63200;48.810;12.352;2023-07-28T07:32:47;2.80;;;2.55;;
74674;SDS011;63200;48.810;12.352;2023-07-28T07:35:12;4.93;;;2.85;;
74674;SDS011;63200;48.810;12.352;2023-07-28T07:37:38;8.50;;;3.00;;
74674;SDS011;63200;48.810;12.352;2023-07-28T07:40:04;2.80;;;2.70;;
74674;SDS011;63200;48.810;12.352;2023-07-28T07:42:42;3.67;;;2.50;;
74674;SDS011;63200;48.810;12.352;2023-07-28T07:45:14;3.78;;;3.15;;
74674;SDS011;63200;48.810;12.352;2023-07-28T07:47:40;2.90;;;2.80;;
74674;SDS011;63200;48.810;12.352;2023-07-28T07:50:07;4.90;;;2.38;;
74674;SDS011;63200;48.810;12.352;2023-07-28T07:52:36;2.53;;;2.42;;
74674;SDS011;63200;48.810;12.352;2023-07-28T07:55:03;2.58;;;2.47;;
74674;SDS011;63200;48.810;12.352;2023-07-28T07:57:29;6.22;;;2.80;;
74674;SDS011;63200;48.810;12.352;2023-07-28T07:59:57;2.72;;;2.50;;
74674;SDS011;63200;48.810;12.352;2023-07-28T08:02:22;3.97;;;2.70;;
74674;SDS011;63200;48.810;12.352;2023-07-28T08:04:48;3.00;;;2.80;;
74674;SDS011;63200;48.810;12.352;2023-07-28T08:07:13;3.92;;;2.72;;
74674;SDS011;63200;48.810;12.352;2023-07-28T08:09:41;3.60;;;2.38;;
74674;SDS011;63200;48.810;12.352;2023-07-28T08:12:06;3.72;;;2.50;;
74674;SDS011;63200;48.810;12.352;2023-07-28T08:14:33;2.60;;;2.40;;
74674;SDS011;63200;48.810;12.352;2023-07-28T08:16:59;3.85;;;3.05;;
74674;SDS011;63200;48.810;12.352;2023-07-28T08:19:24;2.88;;;2.70;;
74674;SDS011;63200;48.810;12.352;2023-07-28T08:21:50;4.22;;;3.00;;
74674;SDS011;63200;48.810;12.352;2023-07-28T08:24:15;4.60;;;2.83;;
74674;SDS011;63200;48.810;12.352;2023-07-28T08:26:41;2.70;;;2.50;;
74674;SDS011;63200;48.810;12.352;2023-07-28T08:29:06;2.75;;;2.63;;
74674;SDS011;63200;48.810;12.352;2023-07-28T08:34:53;5.45;;;2.55;;
74674;SDS011;63200;48.810;12.352;2023-07-28T08:37:18;3.13;;;2.47;;
74674;SDS011;63200;48.810;12.352;2023-07-28T08:39:44;4.93;;;2.60;;
74674;SDS011;63200;48.810;12.352;2023-07-28T08:42:09;6.22;;;2.80;;
74674;SDS011;63200;48.810;12.352;2023-07-28T08:44:35;3.97;;;2.28;;
74674;SDS011;63200;48.810;12.352;2023-07-28T08:47:01;5.18;;;2.60;;
74674;SDS011;63200;48.810;12.352;2023-07-28T08:49:29;4.25;;;2.60;;
74674;SDS011;63200;48.810;12.352;2023-07-28T08:51:57;7.40;;;2.95;;
74674;SDS011;63200;48.810;12.352;2023-07-28T08:54:24;3.65;;;2.58;;
74674;SDS011;63200;48.810;12.352;2023-07-28T08:56:49;3.60;;;2.40;;
74674;SDS011;63200;48.810;12.352;2023-07-28T08:59:21;3.08;;;2.55;;
74674;SDS011;63200;48.810;12.352;2023-07-28T09:01:49;2.60;;;2.50;;
74674;SDS011;63200;48.810;12.352;2023-07-28T09:04:15;2.80;;;2.25;;
74674;SDS011;63200;48.810;12.352;2023-07-28T09:06:44;2.60;;;2.40;;
74674;SDS011;63200;48.810;12.352;2023-07-28T09:09:10;3.00;;;2.80;;
74674;SDS011;63200;48.810;12.352;2023-07-28T09:11:43;2.85;;;2.65;;
74674;SDS011;63200;48.810;12.352;2023-07-28T09:14:13;3.33;;;2.53;;
74674;SDS011;63200;48.810;12.352;2023-07-28T09:16:41;2.58;;;2.38;;
74674;SDS011;63200;48.810;12.352;2023-07-28T09:19:07;3.20;;;2.90;;
74674;SDS011;63200;48.810;12.352;2023-07-28T09:21:33;2.45;;;2.33;;
74674;SDS011;63200;48.810;12.352;2023-07-28T09:24:05;2.35;;;2.25;;
74674;SDS011;63200;48.810;12.352;2023-07-28T09:26:38;2.63;;;2.42;;
74674;SDS011;63200;48.810;12.352;2023-07-28T09:31:38;3.17;;;2.95;;
74674;SDS011;63200;48.810;12.352;2023-07-28T09:34:06;4.93;;;2.80;;
74674;SDS011;63200;48.810;12.352;2023-07-28T09:36:33;3.38;;;2.88;;
74674;SDS011;63200;48.810;12.352;2023-07-28T09:38:59;6.50;;;2.58;;
74674;SDS011;63200;48.810;12.352;2023-07-28T09:41:26;3.22;;;2.60;;
74674;SDS011;63200;48.810;12.352;2023-07-28T09:43:54;4.18;;;2.58;;
74674;SDS011;63200;48.810;12.352;2023-07-28T09:46:19;2.35;;;2.30;;
74674;SDS011;63200;48.810;12.352;2023-07-28T09:48:47;2.90;;;2.70;;
74674;SDS011;63200;48.810;12.352;2023-07-28T09:51:17;4.75;;;2.75;;
74674;SDS011;63200;48.810;12.352;2023-07-28T09:53:46;8.07;;;2.90;;
74674;SDS011;63200;48.810;12.352;2023-07-28T09:56:14;2.45;;;2.25;;
74674;SDS011;63200;48.810;12.352;2023-07-28T09:58:46;2.95;;;2.75;;
74674;SDS011;63200;48.810;12.352;2023-07-28T10:01:17;2.67;;;2.50;;
74674;SDS011;63200;48.810;12.352;2023-07-28T10:03:44;2.67;;;2.58;;
74674;SDS011;63200;48.810;12.352;2023-07-28T10:06:10;3.30;;;3.00;;
74674;SDS011;63200;48.810;12.352;2023-07-28T10:08:36;3.20;;;3.00;;
74674;SDS011;63200;48.810;12.352;2023-07-28T10:11:03;2.85;;;2.65;;
74674;SDS011;63200;48.810;12.352;2023-07-28T10:13:33;4.20;;;3.00;;
74674;SDS011;63200;48.810;12.352;2023-07-28T10:16:05;5.07;;;2.78;;
74674;SDS011;63200;48.810;12.352;2023-07-28T10:18:30;5.78;;;3.20;;
74674;SDS011;63200;48.810;12.352;2023-07-28T10:20:55;4.20;;;3.72;;
74674;SDS011;63200;48.810;12.352;2023-07-28T10:23:30;3.40;;;2.88;;
74674;SDS011;63200;48.810;12.352;2023-07-28T10:25:59;4.68;;;3.20;;
74674;SDS011;63200;48.810;12.352;2023-07-28T10:28:26;4.50;;;2.70;;
74674;SDS011;63200;48.810;12.352;2023-07-28T10:31:00;3.15;;;2.70;;
74674;SDS011;63200;48.810;12.352;2023-07-28T10:33:28;3.58;;;3.15;;
74674;SDS011;63200;48.810;12.352;2023-07-28T10:35:57;3.85;;;3.05;;
74674;SDS011;63200;48.810;12.352;2023-07-28T10:43:34;4.07;;;3.67;;
74674;SDS011;63200;48.810;12.352;2023-07-28T10:45:59;6.00;;;3.42;;
74674;SDS011;63200;48.810;12.352;2023-07-28T10:48:25;5.22;;;3.30;;
74674;SDS011;63200;48.810;12.352;2023-07-28T10:50:51;5.18;;;3.20;;
74674;SDS011;63200;48.810;12.352;2023-07-28T10:53:16;3.60;;;3.15;;
74674;SDS011;63200;48.810;12.352;2023-07-28T10:55:42;3.58;;;3.28;;
74674;SDS011;63200;48.810;12.352;2023-07-28T10:58:09;3.35;;;3.10;;
74674;SDS011;63200;48.810;12.352;2023-07-28T11:00:34;3.08;;;2.88;;
74674;SDS011;63200;48.810;12.352;2023-07-28T11:02:59;3.10;;;2.90;;
74674;SDS011;63200;48.810;12.352;2023-07-28T11:05:26;3.45;;;3.22;;
74674;SDS011;63200;48.810;12.352;2023-07-28T11:07:56;3.85;;;3.55;;
74674;SDS011;63200;48.810;12.352;2023-07-28T11:10:23;4.10;;;3.70;;
74674;SDS011;63200;48.810;12.352;2023-07-28T11:12:50;3.95;;;3.65;;
74674;SDS011;63200;48.810;12.352;2023-07-28T11:15:16;4.15;;;3.75;;
74674;SDS011;63200;48.810;12.352;2023-07-28T11:17:52;4.00;;;3.65;;
74674;SDS011;63200;48.810;12.352;2023-07-28T11:20:24;7.65;;;3.95;;
74674;SDS011;63200;48.810;12.352;2023-07-28T11:22:58;4.18;;;3.80;;
74674;SDS011;63200;48.810;12.352;2023-07-28T11:25:32;3.60;;;3.40;;
74674;SDS011;63200;48.810;12.352;2023-07-28T11:28:00;3.53;;;3.33;;
74674;SDS011;63200;48.810;12.352;2023-07-28T11:30:32;4.00;;;3.67;;
74674;SDS011;63200;48.810;12.352;2023-07-28T11:33:00;3.70;;;3.40;;
74674;SDS011;63200;48.810;12.352;2023-07-28T11:35:28;4.20;;;3.65;;
74674;SDS011;63200;48.810;12.352;2023-07-28T11:37:53;6.55;;;3.53;;
74674;SDS011;63200;48.810;12.352;2023-07-28T11:40:21;4.18;;;3.42;;
74674;SDS011;63200;48.810;12.352;2023-07-28T11:42:48;3.78;;;3.40;;
74674;SDS011;63200;48.810;12.352;2023-07-28T11:45:17;4.15;;;3.03;;
74674;SDS011;63200;48.810;12.352;2023-07-28T11:47:54;3.35;;;3.03;;
74674;SDS011;63200;48.810;12.352;2023-07-28T11:50:21;5.93;;;3.25;;
74674;SDS011;63200;48.810;12.352;2023-07-28T11:52:48;3.80;;;3.50;;
74674;SDS011;63200;48.810;12.352;2023-07-28T11:55:13;3.20;;;3.00;;
74674;SDS011;63200;48.810;12.352;2023-07-28T11:57:39;3.55;;;3.25;;
74674;SDS011;63200;48.810;12.352;2023-07-28T12:00:04;3.40;;;2.80;;
74674;SDS011;63200;48.810;12.352;2023-07-28T12:02:32;5.13;;;2.88;;
74674;SDS011;63200;48.810;12.352;2023-07-28T12:04:58;3.03;;;2.42;;
74674;SDS011;63200;48.810;12.352;2023-07-28T12:07:28;3.13;;;2.92;;
74674;SDS011;63200;48.810;12.352;2023-07-28T12:09:57;5.25;;;2.90;;
74674;SDS011;63200;48.810;12.352;2023-07-28T12:12:28;2.85;;;2.70;;
74674;SDS011;63200;48.810;12.352;2023-07-28T12:14:55;3.10;;;2.90;;
74674;SDS011;63200;48.810;12.352;2023-07-28T12:17:24;2.85;;;2.65;;
74674;SDS011;63200;48.810;12.352;2023-07-28T12:22:27;3.60;;;3.30;;
74674;SDS011;63200;48.810;12.352;2023-07-28T12:24:53;3.28;;;2.88;;
74674;SDS011;63200;48.810;12.352;2023-07-28T12:27:19;5.53;;;3.03;;
74674;SDS011;63200;48.810;12.352;2023-07-28T12:29:48;4.65;;;2.72;;
74674;SDS011;63200;48.810;12.352;2023-07-28T12:32:14;3.70;;;3.40;;
74674;SDS011;63200;48.810;12.352;2023-07-28T12:34:39;3.15;;;2.95;;
74674;SDS011;63200;48.810;12.352;2023-07-28T12:37:05;3.22;;;2.92;;
74674;SDS011;63200;48.810;12.352;2023-07-28T12:39:31;4.70;;;3.10;;
74674;SDS011;63200;48.810;12.352;2023-07-28T12:41:57;4.80;;;3.42;;
74674;SDS011;63200;48.810;12.352;2023-07-28T12:44:22;3.05;;;2.85;;
74674;SDS011;63200;48.810;12.352;2023-07-28T12:46:47;3.90;;;3.00;;
74674;SDS011;63200;48.810;12.352;2023-07-28T12:49:13;3.13;;;2.90;;
74674;SDS011;63200;48.810;12.352;2023-07-28T12:51:39;3.50;;;3.20;;
74674;SDS011;63200;48.810;12.352;2023-07-28T12:54:05;3.67;;;2.83;;
74674;SDS011;63200;48.810;12.352;2023-07-28T12:56:30;3.15;;;2.85;;
74674;SDS011;63200;48.810;12.352;2023-07-28T12:58:56;2.92;;;2.72;;
74674;SDS011;63200;48.810;12.352;2023-07-28T13:01:21;2.83;;;2.70;;
74674;SDS011;63200;48.810;12.352;2023-07-28T13:03:46;2.95;;;2.10;;
74674;SDS011;63200;48.810;12.352;2023-07-28T13:06:12;2.17;;;1.98;;
74674;SDS011;63200;48.810;12.352;2023-07-28T13:08:37;5.78;;;2.03;;
74674;SDS011;63200;48.810;12.352;2023-07-28T13:11:03;2.08;;;2.08;;
74674;SDS011;63200;48.810;12.352;2023-07-28T13:13:28;2.05;;;1.95;;
74674;SDS011;63200;48.810;12.352;2023-07-28T13:15:55;1.80;;;1.70;;
74674;SDS011;63200;48.810;12.352;2023-07-28T13:18:20;2.00;;;1.90;;
74674;SDS011;63200;48.810;12.352;2023-07-28T13:20:46;2.00;;;1.90;;
74674;SDS011;63200;48.810;12.352;2023-07-28T13:23:11;3.40;;;1.67;;
74674;SDS011;63200;48.810;12.352;2023-07-28T13:25:37;1.67;;;1.58;;
74674;SDS011;63200;48.810;12.352;2023-07-28T13:28:02;1.13;;;1.13;;
74674;SDS011;63200;48.810;12.352;2023-07-28T13:30:27;2.25;;;1.15;;
74674;SDS011;63200;48.810;12.352;2023-07-28T13:32:53;1.30;;;1.20;;
74674;SDS011;63200;48.810;12.352;2023-07-28T13:35:18;1.25;;;1.25;;
74674;SDS011;63200;48.810;12.352;2023-07-28T13:37:43;1.50;;;1.40;;
74674;SDS011;63200;48.810;12.352;2023-07-28T13:40:09;1.30;;;1.30;;
74674;SDS011;63200;48.810;12.352;2023-07-28T13:42:35;1.30;;;1.30;;
74674;SDS011;63200;48.810;12.352;2023-07-28T13:45:00;1.17;;;1.17;;
74674;SDS011;63200;48.810;12.352;2023-07-28T13:47:26;1.40;;;1.30;;
74674;SDS011;63200;48.810;12.352;2023-07-28T13:49:51;1.65;;;1.08;;
74674;SDS011;63200;48.810;12.352;2023-07-28T13:52:16;1.80;;;1.50;;
74674;SDS011;63200;48.810;12.352;2023-07-28T13:54:41;1.00;;;1.00;;
74674;SDS011;63200;48.810;12.352;2023-07-28T13:57:07;0.90;;;0.90;;
74674;SDS011;63200;48.810;12.352;2023-07-28T13:59:32;1.75;;;0.95;;
74674;SDS011;63200;48.810;12.352;2023-07-28T14:01:58;1.45;;;1.02;;
74674;SDS011;63200;48.810;12.352;2023-07-28T14:04:23;0.93;;;0.93;;
74674;SDS011;63200;48.810;12.352;2023-07-28T14:06:48;0.98;;;0.98;;
74674;SDS011;63200;48.810;12.352;2023-07-28T14:09:14;0.90;;;0.90;;
74674;SDS011;63200;48.810;12.352;2023-07-28T14:11:39;0.90;;;0.90;;
74674;SDS011;63200;48.810;12.352;2023-07-28T14:14:04;2.33;;;1.08;;
74674;SDS011;63200;48.810;12.352;2023-07-28T14:16:30;3.50;;;0.90;;
74674;SDS011;63200;48.810;12.352;2023-07-28T14:18:55;0.90;;;0.90;;
74674;SDS011;63200;48.810;12.352;2023-07-28T14:21:20;1.00;;;0.90;;
74674;SDS011;63200;48.810;12.352;2023-07-28T14:23:46;1.00;;;0.90;;
74674;SDS011;63200;48.810;12.352;2023-07-28T14:26:11;1.05;;;0.95;;
74674;SDS011;63200;48.810;12.352;2023-07-28T14:28:36;0.80;;;0.80;;
74674;SDS011;63200;48.810;12.352;2023-07-28T14:31:02;0.70;;;0.70;;
74674;SDS011;63200;48.810;12.352;2023-07-28T14:33:27;0.95;;;0.95;;
74674;SDS011;63200;48.810;12.352;2023-07-28T14:35:52;0.63;;;0.63;;
74674;SDS011;63200;48.810;12.352;2023-07-28T14:38:18;0.73;;;0.73;;
74674;SDS011;63200;48.810;12.352;2023-07-28T14:40:44;1.92;;;1.05;;
74674;SDS011;63200;48.810;12.352;2023-07-28T14:43:13;2.72;;;0.68;;
74674;SDS011;63200;48.810;12.352;2023-07-28T14:45:39;2.17;;;0.65;;